M I D A S
Marine Information and Data Acquisition System
Tripno 885 of the Zeeleeuw from 2005-04-22 07:21:10 to 2005-04-22 12:43:49
Back to CruiseResearch ActivitiesStationsMapUnderway DataData graphs

EquipmentUnitsComment
TimeDGPSUTC
LatitudeDGPSDM.mWGS84
LongitudeDGPSDM.mWGS84
TemperatureSBE03/SBE38deg celciusITS90
ConductivitySBE21S/mITS90
SalinitySBE21 Practical Salinity Units
ChlorophylAChelsea fluorimeterg/lCalibrated in Aceton
Missing or incorrect values are displayed as -999
Sea surface data collected by the RV Zeeleeuw from 2005-04-22 07:20:42 to 2005-04-22 12:55:07
Time Latitude Longitude Temperature Conductivity Salinity ChlorophylA
2005-04-22 07:21:47 51°13.611 2°56.037 17.1982 3.84052 30.961556 -0.781249
2005-04-22 07:22:47 51°13.648 2°55.915 17.2623 3.840099 30.959575 -0.74754
2005-04-22 07:23:47 51°13.687 2°55.8 17.2444 3.839888 30.960688 -0.781249
2005-04-22 07:24:47 51°13.698 2°55.765 17.1533 3.839677 30.962402 -0.781249
2005-04-22 07:25:47 51°13.7 2°55.743 17.325 3.839256 30.959219 -0.781249
2005-04-22 07:26:47 51°13.773 2°55.684 16.9395 3.838834 30.957238 -0.74754
2005-04-22 07:27:47 51°13.888 2°55.586 16.9283 3.838518 30.959208 -0.781249
2005-04-22 07:28:47 51°14.017 2°55.492 17.0815 3.838307 30.960322 -0.74754
2005-04-22 07:29:47 51°14.142 2°55.404 17.1257 3.837991 30.959888 -0.781249
2005-04-22 07:30:47 51°14.264 2°55.257 17.0544 3.837675 30.960055 -0.781249
2005-04-22 07:31:47 51°14.369 2°55.045 17.0345 3.837464 30.959967 -0.781249
2005-04-22 07:32:47 51°14.472 2°54.758 16.9749 3.837148 30.961337 -0.781249
2005-04-22 07:33:46 51°14.476 2°54.396 16.956 3.836832 30.959701 -0.781249
2005-04-22 07:34:47 51°14.402 2°54.038 16.8586 3.83641 30.95832 -0.781249
2005-04-22 07:35:47 51°14.279 2°53.709 16.8585 3.836305 30.958577 -0.781249
2005-04-22 07:36:47 51°14.158 2°53.372 16.8998 3.835883 30.959001 -0.781249
2005-04-22 07:37:47 51°14.041 2°53.031 16.7598 3.835462 30.958222 -0.74754
2005-04-22 07:38:47 51°13.927 2°52.679 16.9123 3.835251 30.958735 -0.781249
2005-04-22 07:39:47 51°13.816 2°52.33 16.8311 3.834724 30.95701 -0.781249
2005-04-22 07:40:47 51°13.706 2°51.984 16.7822 3.834619 30.957868 -0.781249
2005-04-22 07:41:47 51°13.588 2°51.636 16.8686 3.834303 30.958036 -0.781249
2005-04-22 07:42:47 51°13.463 2°51.303 16.8174 3.833986 30.957603 -0.781249
2005-04-22 07:43:47 51°13.333 2°50.97 16.7782 3.833459 30.955275 -0.781249
2005-04-22 07:44:47 51°13.203 2°50.636 16.8101 3.833249 30.95639 -0.781249
2005-04-22 07:45:47 51°13.071 2°50.308 16.7277 3.832933 30.955957 -0.781249
2005-04-22 07:46:47 51°12.936 2°49.974 16.7808 3.832616 30.956727 -0.814958
2005-04-22 07:47:47 51°12.806 2°49.643 16.7376 3.832511 30.956984 -0.781249
2005-04-22 07:48:47 51°12.672 2°49.309 16.7674 3.831984 30.955258 -0.781249
2005-04-22 07:49:47 51°12.541 2°48.98 16.755 3.831668 30.954222 -0.781249
2005-04-22 07:50:47 51°12.408 2°48.646 16.7375 3.831457 30.955339 -0.814958
2005-04-22 07:51:47 51°12.279 2°48.319 16.6476 3.831036 30.95456 -0.781249
2005-04-22 07:52:47 51°12.149 2°47.989 16.7533 3.83072 30.954729 -0.781249
2005-04-22 07:53:47 51°12.018 2°47.657 16.7704 3.830298 30.95395 -0.814958
2005-04-22 07:54:47 51°11.889 2°47.332 16.7306 3.830087 30.953862 -0.781249
2005-04-22 07:55:47 51°11.766 2°46.996 16.7653 3.829771 30.954031 -0.814958
2005-04-22 07:56:47 51°11.651 2°46.656 16.7936 3.829455 30.9542 -0.781249
2005-04-22 07:57:47 51°11.549 2°46.304 16.7851 3.829139 30.954369 -0.814958
2005-04-22 07:58:47 51°11.451 2°45.949 16.7897 3.828823 30.953333 -0.814958
2005-04-22 07:59:47 51°11.353 2°45.593 16.8018 3.828401 30.95376 -0.781249
2005-04-22 08:00:47 51°11.256 2°45.24 16.8047 3.828085 30.953326 -0.781249
2005-04-22 08:01:47 51°11.157 2°44.884 16.8323 3.827874 30.953239 -0.781249
2005-04-22 08:02:47 51°11.061 2°44.53 16.8342 3.827663 30.953754 -0.814958
2005-04-22 08:03:47 51°10.963 2°44.18 16.8251 3.827347 30.95332 -0.781249
2005-04-22 08:04:47 51°10.866 2°43.834 16.8199 3.827031 30.95349 -0.781249
2005-04-22 08:05:47 51°10.771 2°43.49 16.8285 3.826715 30.952454 -0.781249
2005-04-22 08:06:47 51°10.674 2°43.143 16.8536 3.826399 30.95202 -0.74754
2005-04-22 08:07:47 51°10.576 2°42.796 16.8711 3.826188 30.952536 -0.781249
2005-04-22 08:08:47 51°10.478 2°42.447 16.8794 3.825767 30.950551 -0.814958
2005-04-22 08:09:47 51°10.388 2°42.099 16.8655 3.825556 30.951066 -0.781249
2005-04-22 08:10:47 51°10.31 2°41.733 16.8869 3.825345 30.952788 -0.781249
2005-04-22 08:11:47 51°10.231 2°41.375 16.905 3.825029 30.952959 -0.814958
2005-04-22 08:12:47 51°10.153 2°41.008 16.8717 3.824818 30.952871 -0.814958
2005-04-22 08:13:47 51°10.073 2°40.647 16.8723 3.824607 30.952784 -0.814958
2005-04-22 08:14:47 51°9.994 2°40.29 16.9318 3.82408 30.951056 -0.814958
2005-04-22 08:15:47 51°9.908 2°39.933 16.9434 3.823975 30.951314 -0.781249
2005-04-22 08:16:47 51°9.82 2°39.577 16.9435 3.823554 30.950535 -0.814958
2005-04-22 08:17:47 51°9.733 2°39.22 16.9673 3.823448 30.952001 -0.781249
2005-04-22 08:18:47 51°9.643 2°38.866 16.9729 3.823027 30.950618 -0.781249
2005-04-22 08:19:47 51°9.55 2°38.514 16.9908 3.822816 30.951135 -0.781249
2005-04-22 08:20:47 51°9.459 2°38.162 17.0048 3.822605 30.951047 -0.781249
2005-04-22 08:21:47 51°9.369 2°37.812 17.0142 3.822289 30.950614 -0.781249
2005-04-22 08:22:47 51°9.277 2°37.464 17.0032 3.821973 30.950785 -0.814958
2005-04-22 08:23:47 51°9.255 2°37.246 17.048 3.821657 30.950956 -0.781249
2005-04-22 08:24:47 51°9.28 2°37.171 17.0765 3.821341 30.950523 -0.781249
2005-04-22 08:25:47 51°9.277 2°37.155 17.0897 3.821235 30.950782 -0.814958
2005-04-22 08:26:47 51°9.272 2°37.143 17.0808 3.821024 30.950695 -0.781249
2005-04-22 08:27:47 51°9.267 2°37.132 17.1186 3.820708 30.950262 -0.814958
2005-04-22 08:28:47 51°9.263 2°37.12 17.1199 3.820708 30.95147 -0.814958
2005-04-22 08:29:47 51°9.259 2°37.108 17.1193 3.820287 30.950087 -0.781249
2005-04-22 08:30:47 51°9.255 2°37.096 17.1541 3.819971 30.94905 -0.814958
2005-04-22 08:31:47 51°9.25 2°37.084 17.1608 3.820076 30.950605 -0.814958
2005-04-22 08:32:47 51°9.246 2°37.073 17.1443 3.819865 30.950518 -0.781249
2005-04-22 08:33:47 51°9.242 2°37.062 9.8284 3.499402 26.522725 10.747366
2005-04-22 08:34:47 51°9.238 2°37.052 9.5639 3.599887 32.796531 12.23058
2005-04-22 08:35:47 51°9.234 2°37.043 9.5129 3.579765 32.799476 13.241862
2005-04-22 08:36:47 51°9.231 2°37.036 9.4856 3.582189 32.893483 13.814922
2005-04-22 08:37:47 51°9.226 2°37.027 9.4746 3.483261 31.919153 13.814922
2005-04-22 08:38:47 51°9.222 2°37.02 9.4755 3.470409 31.802886 14.522819
2005-04-22 08:39:47 51°9.219 2°37.012 9.4633 2.780994 24.906154 13.275571
2005-04-22 08:40:47 51°9.216 2°37.005 9.4597 3.458294 31.69409 13.848631
2005-04-22 08:41:47 51°9.222 2°36.981 9.4727 3.476624 31.890057 16.241999
2005-04-22 08:42:47 51°9.247 2°36.951 9.5116 3.423215 31.330414 15.095879
2005-04-22 08:43:47 51°9.284 2°36.935 9.5228 3.466932 31.753804 11.893486
2005-04-22 08:44:47 51°9.325 2°36.942 9.5255 2.462282 21.767741 9.028187
2005-04-22 08:45:47 51°9.363 2°36.974 9.506 3.444073 31.523658 8.219161
2005-04-22 08:46:47 51°9.39 2°37.029 9.4692 3.447233 31.572983 8.118033
2005-04-22 08:47:47 51°9.4 2°37.098 9.4479 3.376868 30.887683 8.151742
2005-04-22 08:48:47 51°9.389 2°37.167 9.4488 3.427535 31.425017 8.85964
2005-04-22 08:49:47 51°9.359 2°37.222 9.4778 3.367073 30.798871 7.983195
2005-04-22 08:50:47 51°9.314 2°37.249 9.4969 3.365282 30.753408 7.410136
2005-04-22 08:51:47 51°9.268 2°37.243 9.5003 3.349061 30.583571 6.971913
2005-04-22 08:52:47 51°9.235 2°37.223 9.4924 3.3439 30.531338 6.971913
2005-04-22 08:53:47 51°9.211 2°37.199 9.4796 3.433223 31.444207 7.376426
2005-04-22 08:54:47 51°9.193 2°37.17 9.4633 3.565122 32.807245 8.758512
2005-04-22 08:55:46 51°9.185 2°37.136 9.484 3.570495 32.863709 8.724802
2005-04-22 08:56:47 51°9.186 2°37.103 9.5245 3.57787 32.92043 8.016905
2005-04-22 08:57:47 51°9.196 2°37.076 9.5359 3.581979 32.932474 7.780939
2005-04-22 08:58:47 51°9.211 2°37.059 9.506 3.584086 32.948767 8.016905
2005-04-22 08:59:47 51°9.231 2°37.05 9.4863 3.586405 33.006989 9.129315
2005-04-22 09:00:47 51°9.252 2°37.05 9.4841 3.586932 33.022154 10.342853
2005-04-22 09:01:47 51°9.276 2°37.062 9.4995 3.584403 32.991764 10.174306
2005-04-22 09:02:47 51°9.295 2°37.08 9.532 3.581031 32.940764 9.297862
2005-04-22 09:03:47 51°9.31 2°37.098 9.5393 3.578818 32.894932 8.623674
2005-04-22 09:04:47 51°9.323 2°37.115 9.546 3.574814 32.848797 8.050614
2005-04-22 09:05:47 51°9.331 2°37.131 9.5467 3.571127 32.807403 8.185452
2005-04-22 09:06:47 51°9.34 2°37.149 9.55 3.568493 32.776037 7.848358
2005-04-22 09:07:47 51°9.346 2°37.165 9.5511 3.494954 32.025783 8.320289
2005-04-22 09:08:47 51°9.353 2°37.18 9.5585 3.529721 32.377614 9.129315
2005-04-22 09:09:47 51°9.359 2°37.194 9.5677 3.489792 31.965274 9.668665
2005-04-22 09:10:47 51°9.364 2°37.208 9.5763 3.526771 32.326988 10.443982
2005-04-22 09:11:47 51°9.369 2°37.222 9.5889 3.507175 32.134106 11.522683
2005-04-22 09:12:47 51°9.373 2°37.235 9.6486 3.528983 32.324565 11.623811
2005-04-22 09:13:47 51°9.378 2°37.249 9.6495 3.526138 32.25684 12.196871
2005-04-22 09:14:47 51°9.381 2°37.261 9.6487 3.535514 32.355077 12.837349
2005-04-22 09:15:47 51°9.387 2°37.272 9.6417 3.535198 32.351863 13.208153
2005-04-22 09:16:47 51°9.391 2°37.283 9.6252 3.53267 32.334216 13.747503
2005-04-22 09:17:47 51°9.397 2°37.295 9.5899 3.518447 32.213731 13.646375
2005-04-22 09:18:47 51°9.403 2°37.307 9.5576 3.51181 32.169592 14.185725
2005-04-22 09:19:47 51°9.408 2°37.32 9.5624 3.534567 32.426269 14.522819
2005-04-22 09:20:47 51°9.414 2°37.334 9.649 3.483471 31.873487 14.050888
2005-04-22 09:21:47 51°9.419 2°37.347 9.6923 3.527718 32.260475 11.792358
2005-04-22 09:22:47 51°9.426 2°37.363 9.716 3.526558 32.210775 10.54511
2005-04-22 09:23:47 51°9.431 2°37.378 9.7281 3.539938 32.330485 10.983332
2005-04-22 09:24:47 51°9.437 2°37.394 9.7194 3.509385 32.016335 11.219298
2005-04-22 09:25:47 51°9.444 2°37.41 9.6982 3.517076 32.110235 11.421554
2005-04-22 09:26:47 51°9.451 2°37.427 9.68 3.520237 32.153192 12.331708
2005-04-22 09:27:47 51°9.457 2°37.444 9.6466 3.527507 32.243731 13.140734
2005-04-22 09:28:47 51°9.464 2°37.463 9.5686 3.525927 32.278832 13.713794
2005-04-22 09:29:47 51°9.471 2°37.481 9.5428 3.482523 31.894253 13.646375
2005-04-22 09:30:47 51°9.479 2°37.5 9.5191 3.508545 32.176542 14.354272
2005-04-22 09:31:47 51°9.486 2°37.519 9.497 3.479258 31.898729 14.152016
2005-04-22 09:32:47 51°9.494 2°37.539 9.4758 3.536359 32.503616 14.017178
2005-04-22 09:33:47 51°9.533 2°37.535 9.467 3.530564 32.46071 14.623947
2005-04-22 09:34:47 51°9.584 2°37.475 9.5116 3.510758 32.255543 13.3767
2005-04-22 09:35:47 51°9.622 2°37.416 9.5054 3.502329 32.136617 8.994477
2005-04-22 09:36:47 51°9.65 2°37.35 9.523 3.522135 32.32236 7.376426
2005-04-22 09:37:47 51°9.687 2°37.281 9.4626 3.499801 32.11889 7.241589
2005-04-22 09:38:47 51°9.737 2°37.237 9.5238 3.512654 32.287398 7.309007
2005-04-22 09:39:47 51°9.803 2°37.271 9.5408 3.529932 32.390065 5.792084
2005-04-22 09:40:47 51°9.863 2°37.365 9.5494 3.538782 32.485467 5.690956
2005-04-22 09:41:47 51°9.862 2°37.488 9.6326 3.527719 32.348396 5.758375
2005-04-22 09:42:47 51°9.814 2°37.523 9.6351 3.51497 32.157226 4.983059
2005-04-22 09:43:47 51°9.767 2°37.479 9.5967 3.480731 31.811739 4.949349
2005-04-22 09:44:47 51°9.723 2°37.407 9.5209 3.534778 32.416632 5.724665
2005-04-22 09:45:47 51°9.69 2°37.344 9.4872 3.510757 32.213724 6.432563
2005-04-22 09:46:47 51°9.671 2°37.295 9.4781 3.529511 32.434432 6.668529
2005-04-22 09:47:47 51°9.652 2°37.248 9.5186 3.534673 32.479747 6.634819
2005-04-22 09:48:47 51°9.63 2°37.196 9.51 3.552057 32.63352 5.994341
2005-04-22 09:49:47 51°9.607 2°37.141 9.4883 3.550055 32.633126 6.061759
2005-04-22 09:50:47 51°9.582 2°37.086 9.5298 3.522346 32.348047 6.297725
2005-04-22 09:51:47 51°9.558 2°37.033 9.5364 3.547948 32.576753 5.926922
2005-04-22 09:52:47 51°9.533 2°36.981 9.5037 3.542574 32.533771 5.859503
2005-04-22 09:53:46 51°9.511 2°36.927 9.4773 3.507492 32.201682 5.825794
2005-04-22 09:54:47 51°9.492 2°36.872 9.491 3.531197 32.46199 6.398853
2005-04-22 09:55:47 51°9.471 2°36.82 9.5011 3.547948 32.608633 6.5674
2005-04-22 09:56:47 51°9.448 2°36.771 9.4973 3.547948 32.610117 6.162888
2005-04-22 09:57:47 51°9.426 2°36.723 9.4972 3.530775 32.439953 6.432563
2005-04-22 09:58:47 51°9.404 2°36.676 9.4863 3.531407 32.440498 6.196597
2005-04-22 09:59:47 51°9.383 2°36.627 9.4905 3.545209 32.599949 6.196597
2005-04-22 10:00:47 51°9.362 2°36.576 9.5059 3.480944 31.93332 6.365144
2005-04-22 10:01:47 51°9.341 2°36.525 9.5132 3.574393 32.87439 5.893212
2005-04-22 10:02:47 51°9.324 2°36.471 9.4955 3.55743 32.695823 5.994341
2005-04-22 10:03:47 51°9.309 2°36.416 9.4904 3.562804 32.767863 6.230306
2005-04-22 10:04:47 51°9.293 2°36.361 9.4963 3.551109 32.647604 6.365144
2005-04-22 10:05:47 51°9.276 2°36.308 9.5012 3.457241 31.686979 5.724665
2005-04-22 10:06:47 51°9.259 2°36.254 9.4847 3.558273 32.710386 5.825794
2005-04-22 10:07:47 51°9.242 2°36.199 9.4877 3.557641 32.718075 5.623537
2005-04-22 10:08:48 51°9.224 2°36.145 9.4912 3.49485 32.079382 5.623537
2005-04-22 10:09:47 51°9.206 2°36.091 9.4858 3.449972 31.6224 5.724665
2005-04-22 10:10:47 51°9.187 2°36.038 9.498 3.547 32.610824 5.792084
2005-04-22 10:11:47 51°9.168 2°35.983 9.4977 3.480733 31.923182 5.724665
2005-04-22 10:12:47 51°9.15 2°35.928 9.4992 3.568493 32.821546 6.162888
2005-04-22 10:13:47 51°9.131 2°35.873 9.5332 3.557641 32.704672 5.893212
2005-04-22 10:14:47 51°9.111 2°35.82 9.5493 3.540572 32.49487 5.45499
2005-04-22 10:15:47 51°9.091 2°35.768 9.5649 3.578607 32.873343 5.219024
2005-04-22 10:16:47 51°9.072 2°35.715 9.5864 3.569967 32.770242 4.747093
2005-04-22 10:17:47 51°9.054 2°35.661 9.6194 3.554901 32.594363 4.747093
2005-04-22 10:18:47 51°9.037 2°35.611 9.6398 3.565436 32.675788 4.578546
2005-04-22 10:19:47 51°9.025 2°35.563 9.6216 3.548473 32.497179 4.072905
2005-04-22 10:20:47 51°9.025 2°35.509 9.624 3.568176 32.706658 4.34258
2005-04-22 10:21:47 51°9.033 2°35.471 9.609 3.487263 31.895372 4.645965
2005-04-22 10:22:47 51°9.048 2°35.451 9.5941 3.565331 32.694731 4.713383
2005-04-22 10:23:47 51°9.065 2°35.445 9.6057 3.549211 32.531233 4.578546
2005-04-22 10:24:47 51°9.082 2°35.447 9.5925 3.561117 32.651782 4.679674
2005-04-22 10:25:47 51°9.098 2°35.456 9.5817 3.535199 32.398115 4.949349
2005-04-22 10:26:47 51°9.123 2°35.438 9.5991 3.523294 32.281328 5.219024
2005-04-22 10:27:47 51°9.196 2°35.415 9.563 3.544154 32.490789 5.084187
2005-04-22 10:28:47 51°9.261 2°35.543 9.4965 3.556271 32.677294 4.679674
2005-04-22 10:29:47 51°9.248 2°35.709 9.4658 3.545525 32.59724 5.421281
2005-04-22 10:30:47 51°9.175 2°35.758 9.4948 3.500539 32.147622 5.589828
2005-04-22 10:31:47 51°9.12 2°35.736 9.5145 3.548053 32.601547 4.747093
2005-04-22 10:32:47 51°9.082 2°35.699 9.5442 3.537307 32.477068 4.780802
2005-04-22 10:33:47 51°9.052 2°35.652 9.6363 3.563014 32.703017 4.848221
2005-04-22 10:34:47 51°9.029 2°35.603 9.7191 3.534144 32.324307 4.308871
2005-04-22 10:35:47 51°9.003 2°35.555 9.7732 3.570492 32.621553 4.039195
2005-04-22 10:36:47 51°8.978 2°35.505 9.734 3.540043 32.293599 3.600973
2005-04-22 10:37:47 51°8.953 2°35.453 9.6756 3.589879 32.849677 3.735811
2005-04-22 10:38:47 51°8.929 2°35.402 9.6906 3.549 32.468686 3.938067
2005-04-22 10:39:47 51°8.91 2°35.347 9.6735 3.552476 32.487851 3.836939
2005-04-22 10:40:47 51°8.891 2°35.294 9.7007 3.56375 32.611298 4.814512
2005-04-22 10:41:47 51°8.872 2°35.241 9.6722 3.54647 32.400439 4.679674
2005-04-22 10:42:47 51°8.856 2°35.187 9.5878 3.571968 32.73046 5.657247
2005-04-22 10:43:47 51°8.843 2°35.131 9.5621 3.542468 32.483203 5.792084
2005-04-22 10:44:47 51°8.83 2°35.074 9.5475 3.553426 32.614863 5.724665
2005-04-22 10:45:47 51°8.817 2°35.016 9.5474 3.542679 32.508231 5.960631
2005-04-22 10:46:47 51°8.803 2°34.958 9.5598 3.55174 32.599151 6.095469
2005-04-22 10:47:47 51°8.79 2°34.899 9.5582 3.492426 31.989882 6.162888
2005-04-22 10:48:47 51°8.777 2°34.841 9.5343 3.54426 32.530998 6.432563
2005-04-22 10:49:48 51°8.765 2°34.781 9.5187 3.539519 32.497422 6.803366
2005-04-22 10:50:47 51°8.751 2°34.722 9.5123 3.548053 32.592648 6.904494
2005-04-22 10:51:47 51°8.738 2°34.662 9.5058 3.54268 32.545949 7.578683
2005-04-22 10:52:47 51°8.718 2°34.609 9.5003 3.52793 32.405018 7.814648
2005-04-22 10:53:47 51°8.695 2°34.56 9.5043 3.482629 31.937405 7.241589
2005-04-22 10:54:47 51°8.672 2°34.508 9.5116 3.578502 32.913408 7.578683
2005-04-22 10:55:47 51°8.65 2°34.454 9.5101 3.252063 29.600546 7.612392
2005-04-22 10:56:47 51°8.629 2°34.4 9.5094 3.576079 32.887135 7.74723
2005-04-22 10:57:47 51°8.611 2°34.344 9.5117 3.463983 31.744741 7.780939
2005-04-22 10:58:47 51°8.594 2°34.289 9.4945 3.204149 29.117603 7.511264
2005-04-22 10:59:47 51°8.577 2°34.231 9.4777 3.195198 29.042147 8.151742
2005-04-22 11:00:47 51°8.563 2°34.169 9.4807 3.549739 32.644758 8.758512
2005-04-22 11:01:47 51°8.563 2°34.124 9.4755 3.534779 32.495617 8.657383
2005-04-22 11:02:47 51°8.575 2°34.095 9.4912 3.549529 32.640375 8.219161
2005-04-22 11:03:47 51°8.593 2°34.079 9.5065 3.57197 32.857842 7.949486
2005-04-22 11:04:47 51°8.615 2°34.075 9.5204 3.54995 32.614233 7.578683
2005-04-22 11:05:47 51°8.636 2°34.047 9.5155 3.564173 32.755765 7.780939
2005-04-22 11:06:47 51°8.613 2°34.032 9.5149 3.543523 32.551591 8.387708
2005-04-22 11:07:47 51°8.582 2°34.107 9.5271 3.557851 32.688971 7.14046
2005-04-22 11:08:47 51°8.594 2°34.216 9.5264 3.563225 32.742355 6.870785
2005-04-22 11:09:47 51°8.627 2°34.308 9.5286 3.583981 32.955185 7.073042
2005-04-22 11:10:47 51°8.664 2°34.395 9.527 3.553216 32.638671 6.904494
2005-04-22 11:11:47 51°8.708 2°34.504 9.5211 3.510757 32.209328 7.039332
2005-04-22 11:12:47 51°8.755 2°34.62 9.5109 3.531091 32.420303 7.073042
2005-04-22 11:13:47 51°8.794 2°34.724 9.5101 3.562487 32.750466 7.17417
2005-04-22 11:14:47 51°8.824 2°34.809 9.506 3.535726 32.479413 6.870785
2005-04-22 11:15:47 51°8.847 2°34.881 9.4998 3.54995 32.626851 7.544973
2005-04-22 11:16:47 51°8.867 2°34.945 9.4969 3.200674 29.089277 7.410136
2005-04-22 11:17:47 51°8.886 2°35.004 9.4936 3.520661 32.329379 8.387708
2005-04-22 11:18:47 51°8.904 2°35.061 9.4978 3.501381 32.136459 8.85964
2005-04-22 11:19:47 51°8.922 2°35.123 9.4925 3.53088 32.43586 9.4327
2005-04-22 11:20:47 51°8.942 2°35.189 9.4989 3.512443 32.249241 9.803503
2005-04-22 11:21:47 51°8.964 2°35.258 9.5021 3.519607 32.320104 9.533828
2005-04-22 11:22:47 51°8.986 2°35.328 9.5134 3.496114 32.071097 8.893349
2005-04-22 11:23:47 51°9.006 2°35.398 9.5356 3.561855 32.736557 8.792221
2005-04-22 11:24:47 51°9.025 2°35.467 9.5549 3.540256 32.493124 8.387708
2005-04-22 11:25:47 51°9.043 2°35.533 9.537 3.547526 32.55987 8.28658
2005-04-22 11:26:47 51°9.06 2°35.599 9.5466 3.501486 32.10028 8.691093
2005-04-22 11:27:47 51°9.077 2°35.667 9.5496 3.549212 32.577803 8.960768
2005-04-22 11:28:47 51°9.094 2°35.73 9.557 3.530564 32.384731 8.85964
2005-04-22 11:29:47 51°9.11 2°35.791 9.5518 3.558167 32.665454 9.264153
2005-04-22 11:30:47 51°9.126 2°35.852 9.5474 3.527192 32.351848 9.196734
2005-04-22 11:31:47 51°9.143 2°35.912 9.5471 3.505384 32.133396 9.264153
2005-04-22 11:32:47 51°9.16 2°35.973 9.5463 3.522451 32.307951 9.39899
2005-04-22 11:33:47 51°9.176 2°36.033 9.5447 3.527614 32.359819 9.601247
2005-04-22 11:34:47 51°9.193 2°36.093 9.558 3.501486 32.095174 9.500118
2005-04-22 11:35:47 51°9.211 2°36.156 9.5724 3.535094 32.426481 9.668665
2005-04-22 11:36:47 51°9.23 2°36.22 9.5553 3.525296 32.322979 9.601247
2005-04-22 11:37:47 51°9.249 2°36.285 9.5541 3.55469 32.632208 9.668665
2005-04-22 11:38:47 51°9.268 2°36.349 9.5578 3.513707 32.210824 9.4327
2005-04-22 11:39:47 51°9.286 2°36.414 9.562 3.534251 32.414946 9.331571
2005-04-22 11:40:47 51°9.305 2°36.477 9.5627 3.467669 31.733895 9.095606
2005-04-22 11:41:47 51°9.322 2°36.54 9.5603 3.52203 32.291183 9.466409
2005-04-22 11:42:47 51°9.345 2°36.61 9.5611 3.513075 32.198536 9.634956
2005-04-22 11:43:47 51°9.375 2°36.706 9.5625 3.540362 32.476483 8.994477
2005-04-22 11:44:47 51°9.403 2°36.824 9.5718 3.439227 31.446572 8.118033
2005-04-22 11:45:47 51°9.425 2°36.957 9.5726 3.538886 32.45113 7.241589
2005-04-22 11:46:48 51°9.442 2°37.093 9.5854 3.530563 32.366347 6.5674
2005-04-22 11:47:47 51°9.458 2°37.199 9.593 3.50138 32.061319 6.365144
2005-04-22 11:48:47 51°9.474 2°37.286 9.5948 3.541836 32.464969 6.196597
2005-04-22 11:49:47 51°9.488 2°37.366 9.6113 3.007477 27.082697 6.533691
2005-04-22 11:50:47 51°9.532 2°37.554 9.6077 3.311249 30.11902 7.241589
2005-04-22 11:51:47 51°9.627 2°37.818 9.6299 3.533302 32.351643 6.60111
2005-04-22 11:52:48 51°9.714 2°38.105 9.614 3.544786 32.467753 6.60111
2005-04-22 11:53:48 51°9.796 2°38.39 9.6176 3.328311 30.282782 7.241589
2005-04-22 11:54:48 51°9.877 2°38.678 9.7287 3.644461 33.460869 6.499982
2005-04-22 11:55:48 51°9.953 2°38.972 9.7673 3.646567 33.408953 5.690956
2005-04-22 11:56:48 51°10.023 2°39.27 9.7392 3.644986 33.382276 4.949349
2005-04-22 11:57:48 51°10.092 2°39.568 9.664 3.642879 33.383441 5.320153
2005-04-22 11:58:47 51°10.145 2°39.796 9.684 3.640035 33.40431 5.657247
2005-04-22 11:59:47 51°10.192 2°39.92 9.6875 3.640351 33.37729 4.713383
2005-04-22 12:00:48 51°10.242 2°40.068 9.6183 3.640035 33.388425 4.713383
2005-04-22 12:01:48 51°10.335 2°40.401 9.5524 3.635715 33.410173 6.870785
2005-04-22 12:02:48 51°10.432 2°40.754 9.5537 3.627392 33.390266 7.309007
2005-04-22 12:03:48 51°10.528 2°41.112 9.5474 3.630342 33.385551 6.129178
2005-04-22 12:04:47 51°10.622 2°41.469 9.5428 3.630869 33.380325 6.466272
2005-04-22 12:05:48 51°10.702 2°41.84 9.5424 3.629288 33.376289 6.904494
2005-04-22 12:06:47 51°10.781 2°42.203 9.5399 3.627392 33.384192 7.073042
2005-04-22 12:07:48 51°10.861 2°42.573 9.5776 3.622228 33.30862 6.398853
2005-04-22 12:08:48 51°10.941 2°42.94 9.7053 3.613588 33.176549 5.893212
2005-04-22 12:09:48 51°11.017 2°43.312 9.8307 3.620435 33.124025 5.893212
2005-04-22 12:10:48 51°11.093 2°43.681 9.9565 3.612215 32.966687 5.219024
2005-04-22 12:11:48 51°11.17 2°44.05 9.6382 3.60621 32.910935 5.45499
2005-04-22 12:12:48 51°11.246 2°44.421 9.6065 3.574814 32.8115 6.466272
2005-04-22 12:13:48 51°11.323 2°44.788 9.6297 3.574707 32.678381 5.556118
2005-04-22 12:14:48 51°11.399 2°45.152 9.5025 3.546788 32.537561 7.814648
2005-04-22 12:15:48 51°11.484 2°45.51 9.4091 3.523611 32.388956 10.578819
2005-04-22 12:16:47 51°11.579 2°45.851 9.3457 3.508757 32.27408 12.196871
2005-04-22 12:17:48 51°11.679 2°46.201 9.3419 3.496115 32.203723 14.758785
2005-04-22 12:18:47 51°11.779 2°46.551 9.6089 3.490952 32.078358 13.107024
2005-04-22 12:19:48 51°11.881 2°46.91 9.7239 3.496007 31.98999 12.028324
2005-04-22 12:20:48 51°11.982 2°47.266 9.5925 3.49411 31.896212 11.859777
2005-04-22 12:21:48 51°12.078 2°47.625 9.7887 3.473042 31.788479 13.3767
2005-04-22 12:22:48 51°12.173 2°47.984 9.5753 3.459241 31.563032 16.579093
2005-04-22 12:23:47 51°12.291 2°48.323 9.605 3.439226 31.401659 14.859913
2005-04-22 12:24:48 51°12.415 2°48.666 9.4164 3.433749 31.420252 17.455537
2005-04-22 12:25:48 51°12.538 2°49.005 9.3456 3.413526 31.321793 18.466819
2005-04-22 12:26:47 51°12.656 2°49.343 9.3574 3.390985 31.156428 19.815195
2005-04-22 12:27:47 51°12.777 2°49.684 9.2466 3.389089 31.132126 19.141007
2005-04-22 12:28:48 51°12.899 2°50.028 9.2242 3.376239 31.093666 19.882614
2005-04-22 12:29:48 51°13.02 2°50.374 9.2376 3.374132 31.051502 19.57923
2005-04-22 12:30:48 51°13.139 2°50.713 9.2802 3.372236 31.034289 19.747777
2005-04-22 12:31:47 51°13.258 2°51.05 9.2575 3.374448 31.004281 19.612939
2005-04-22 12:32:48 51°13.38 2°51.394 9.2853 3.37034 30.981571 19.747777
2005-04-22 12:33:48 51°13.504 2°51.74 9.3519 3.369602 30.956341 19.039879
2005-04-22 12:34:48 51°13.63 2°52.088 9.3411 3.369391 30.901181 18.062306
2005-04-22 12:35:47 51°13.754 2°52.428 9.4232 3.362861 30.838308 19.511811
2005-04-22 12:36:48 51°13.885 2°52.769 9.4492 3.362333 30.772529 19.208426
2005-04-22 12:37:48 51°14.015 2°53.105 9.2639 3.352749 30.748873 19.882614
2005-04-22 12:38:48 51°14.146 2°53.442 9.2998 3.340322 30.675821 21.365828
2005-04-22 12:39:47 51°14.275 2°53.775 9.249 3.336214 30.645939 20.523093
2005-04-22 12:40:48 51°14.382 2°54.116 9.3885 3.33337 30.614887 20.65793
2005-04-22 12:41:47 51°14.42 2°54.456 9.391 3.33358 30.51017 19.882614
2005-04-22 12:42:48 51°14.402 2°54.798 9.5997 3.333052 30.452051 20.185999
2005-04-22 12:43:48 51°14.341 2°55.08 9.6786 3.30788 30.185655 22.91646
2005-04-22 12:44:47 51°14.254 2°55.284 9.6883 3.161712 28.589405 19.983742
2005-04-22 12:45:48 51°14.14 2°55.413 9.6974 3.07106 27.614298 18.062306
2005-04-22 12:46:48 51°14.016 2°55.503 9.9461 3.060533 27.536475 18.096016
2005-04-22 12:47:48 51°13.899 2°55.584 9.8092 2.977263 26.52513 15.702648
2005-04-22 12:48:47 51°13.793 2°55.668 9.7536 3.01358 26.983954 15.197007
2005-04-22 12:49:47 51°13.737 2°55.76 10.4052 2.90969 25.806534 13.309281
2005-04-22 12:50:48 51°13.696 2°55.848 10.1313 2.833915 24.858398 12.500255
2005-04-22 12:51:48 51°13.647 2°55.948 9.9578 2.931687 26.018218 14.152016
2005-04-22 12:52:48 51°13.62 2°56.027 10.0603 2.975158 26.538919 14.522819
2005-04-22 12:53:48 51°13.607 2°56.08 10.0676 2.881694 25.475546 12.601383
2005-04-22 12:54:47 51°13.599 2°56.107 10.029 2.90369 25.727776 12.702512